Terminal Aerodrome Forecast
Issued by NWS Missoula, MT

Home | Current Version | Previous Version | Text Only | Print | Product List | Glossary On
Versions: 1 2 3 4 5 6 7 8 9 10 11 12 13 14 15 16 17 18 19 20 21 22 23 24 25 26 27 28 29 30
000
FTUS45 KMSO 180526
TAFMSO
TAF
KMSO 180526Z 1806/1906 33015G25KT 6SM -RASN OVC045
     FM180800 30012KT 2SM -SN BR SCT015 OVC030
     FM181300 11018G28KT 1SM -SN BLSN OVC015
     FM181800 10020G30KT 3SM BLSN VCSH OVC025=

USA.gov is the U.S. government's official web portal to all federal, state and local government web resources and services.